Time;durP1;ratioP1;P1;durP2;ratioP2;P2;SDS_P1;SDS_P2;PMS_P1;PMS_P2;Temp;Humidity;BMP_temperature;BMP_pressure;BME280_temperature;BME280_humidity;BME280_pressure;Samples;Min_cycle;Max_cycle;Signal;HPM_P1;HPM_P2
2022/11/10 00:00:51;;;;;;;25.63;10.83;;;;;;;10.91;60.41;99772.94;6186591;23;20151;-87
2022/11/10 00:03:18;;;;;;;19.70;11.43;;;;;;;10.84;60.80;99778.53;6186579;23;20146;-87
2022/11/10 00:05:44;;;;;;;23.27;10.63;;;;;;;10.87;60.34;99776.63;6160546;23;20500;-87
2022/11/10 00:08:11;;;;;;;24.27;11.20;;;;;;;10.92;60.15;99768.56;6160823;23;20497;-87
2022/11/10 00:10:55;;;;;;;25.00;11.20;;;;;;;10.88;60.09;99777.47;6160435;23;20162;-87
2022/11/10 00:13:26;;;;;;;25.90;11.77;;;;;;;10.80;60.36;99779.56;6187236;23;20139;-87
2022/11/10 00:18:39;;;;;;;25.43;12.70;;;;;;;10.66;60.65;99774.06;6186602;23;20149;-87
2022/11/10 00:21:08;;;;;;;30.63;13.37;;;;;;;10.64;60.89;99773.28;6186510;23;20149;-87
2022/11/10 00:23:33;;;;;;;31.40;13.63;;;;;;;10.61;60.72;99773.41;6186034;23;20157;-86
2022/11/10 00:25:59;;;;;;;26.50;13.37;;;;;;;10.57;61.03;99766.59;6160784;23;20155;-87
2022/11/10 00:28:29;;;;;;;30.70;13.87;;;;;;;10.49;61.03;99766.91;6160304;23;20178;-87
2022/11/10 00:30:55;;;;;;;34.67;15.87;;;;;;;10.42;61.43;99763.72;6185947;23;20190;-86
2022/11/10 00:33:20;;;;;;;41.33;15.67;;;;;;;10.44;61.08;99761.00;6160658;23;20228;-86
2022/11/10 00:35:47;;;;;;;47.80;16.53;;;;;;;10.41;61.24;99761.13;6186302;23;20228;-86
2022/11/10 00:38:13;;;;;;;47.67;19.10;;;;;;;10.37;61.63;99749.94;6186358;23;20236;-86
2022/11/10 00:40:39;;;;;;;33.87;14.63;;;;;;;10.32;61.48;99751.06;6186549;23;20204;-86
2022/11/10 00:43:04;;;;;;;32.30;14.17;;;;;;;10.32;61.71;99749.28;6186187;23;20582;-86
2022/11/10 00:45:31;;;;;;;48.13;16.07;;;;;;;10.30;61.16;99742.38;6185069;23;20582;-87
2022/11/10 00:47:57;;;;;;;38.73;16.03;;;;;;;10.28;61.75;99742.47;6186834;23;20146;-87
2022/11/10 00:50:24;;;;;;;33.27;13.83;;;;;;;10.24;61.54;99738.28;6186169;23;20164;-87
2022/11/10 00:52:50;;;;;;;34.97;14.97;;;;;;;10.25;61.31;99739.97;6186355;23;20166;-87
2022/11/10 00:55:15;;;;;;;30.63;15.00;;;;;;;10.25;61.10;99742.59;6186439;23;20154;-86
2022/11/10 00:57:41;;;;;;;35.17;14.00;;;;;;;10.23;60.92;99739.19;6184957;23;20458;-86
2022/11/10 01:00:08;;;;;;;30.10;13.47;;;;;;;10.16;60.93;99748.22;6184719;23;20166;-86
2022/11/10 01:02:34;;;;;;;34.40;13.47;;;;;;;10.11;60.80;99747.53;6159907;23;20451;-86
2022/11/10 01:05:00;;;;;;;26.00;12.03;;;;;;;10.09;61.21;99741.47;6185847;23;20209;-86
2022/11/10 01:07:27;;;;;;;40.07;13.90;;;;;;;10.15;60.88;99743.88;6186281;23;20500;-86
2022/11/10 01:09:53;;;;;;;25.50;12.70;;;;;;;10.19;60.46;99740.25;6159774;23;20483;-86
2022/11/10 01:12:19;;;;;;;26.43;12.57;;;;;;;10.21;60.78;99733.16;6185868;23;20178;-86
2022/11/10 01:14:47;;;;;;;25.03;12.77;;;;;;;10.07;60.82;99731.97;6185946;23;20150;-86
2022/11/10 01:17:13;;;;;;;26.30;12.60;;;;;;;10.15;61.13;99733.41;6186110;23;20147;-86
2022/11/10 01:19:41;;;;;;;25.10;11.47;;;;;;;10.09;61.10;99736.22;6159893;23;20165;-86
2022/11/10 01:22:07;;;;;;;26.03;13.20;;;;;;;9.97;61.73;99725.41;6186191;23;20143;-86
2022/11/10 01:24:33;;;;;;;28.27;12.03;;;;;;;9.85;61.72;99727.59;6186134;23;20185;-86
2022/11/10 01:27:00;;;;;;;31.30;14.20;;;;;;;9.81;62.40;99728.66;6186424;23;20146;-86
2022/11/10 01:29:26;;;;;;;34.67;12.53;;;;;;;9.82;62.33;99719.91;6186082;23;20624;-86
2022/11/10 01:31:52;;;;;;;25.80;12.47;;;;;;;9.84;62.63;99725.06;6185495;23;20178;-86
2022/11/10 01:34:17;;;;;;;24.20;11.23;;;;;;;9.78;62.96;99722.69;6186011;23;20151;-86
2022/11/10 01:36:44;;;;;;;26.33;10.67;;;;;;;9.77;62.75;99721.81;6159294;23;20224;-86
2022/11/10 01:39:09;;;;;;;21.27;10.77;;;;;;;9.81;63.15;99728.66;6185618;23;20481;-86
2022/11/10 01:41:35;;;;;;;21.83;11.00;;;;;;;9.81;62.99;99727.78;6185976;23;20153;-86
2022/11/10 01:44:19;;;;;;;19.63;10.00;;;;;;;9.80;63.57;99733.97;6159459;23;20220;-86
2022/11/10 01:46:44;;;;;;;24.13;10.53;;;;;;;9.80;63.44;99726.13;6159348;23;20221;-86
2022/11/10 01:49:12;;;;;;;29.20;11.33;;;;;;;9.76;62.95;99732.38;6159597;23;20182;-86
2022/11/10 01:51:48;;;;;;;25.73;9.93;;;;;;;9.73;62.93;99735.09;6184295;23;20272;-86
2022/11/10 01:54:20;;;;;;;25.30;11.83;;;;;;;9.67;62.39;99723.09;6186164;23;20146;-86
2022/11/10 01:56:50;;;;;;;30.80;13.07;;;;;;;9.67;62.33;99730.13;6159562;23;20209;-86
2022/11/10 01:59:23;;;;;;;23.73;10.73;;;;;;;9.68;62.54;99724.81;6185462;23;20139;-86
2022/11/10 02:01:53;;;;;;;31.80;10.93;;;;;;;9.69;62.15;99726.53;6159483;23;20146;-86
2022/11/10 02:04:20;;;;;;;37.97;13.20;;;;;;;9.68;62.43;99730.06;6159409;23;20634;-86
2022/11/10 02:06:47;;;;;;;26.67;12.07;;;;;;;9.75;62.45;99738.50;6185414;23;20154;-87
2022/11/10 02:09:15;;;;;;;26.57;12.43;;;;;;;9.77;62.44;99731.47;6184656;23;20161;-86
2022/11/10 02:11:42;;;;;;;23.50;11.07;;;;;;;9.79;62.17;99740.97;6185968;23;20610;-86
2022/11/10 02:14:10;;;;;;;24.53;12.43;;;;;;;9.73;62.00;99742.97;6159768;23;20162;-86
2022/11/10 02:16:36;;;;;;;36.20;10.10;;;;;;;9.54;62.92;99736.75;6159365;23;20150;-86
2022/11/10 02:19:20;;;;;;;31.30;13.23;;;;;;;9.52;63.48;99735.94;6159323;23;20168;-86
2022/11/10 02:21:46;;;;;;;31.10;12.00;;;;;;;9.47;63.78;99732.66;6185661;23;20154;-87
2022/11/10 02:24:11;;;;;;;32.67;11.97;;;;;;;9.34;64.73;99726.19;6184453;23;20468;-86
2022/11/10 02:26:44;;;;;;;28.87;12.03;;;;;;;9.34;64.73;99732.28;6185238;23;20161;-86
2022/11/10 02:29:11;;;;;;;37.67;13.13;;;;;;;9.40;65.38;99733.81;6185138;23;20157;-86
2022/11/10 02:31:37;;;;;;;26.37;12.90;;;;;;;9.42;65.50;99735.44;6184825;23;20519;-86
2022/11/10 02:34:02;;;;;;;37.90;12.37;;;;;;;9.51;65.90;99739.50;6160333;23;20159;-86
2022/11/10 02:36:27;;;;;;;32.77;12.67;;;;;;;9.54;65.38;99740.19;6159294;23;20654;-86
2022/11/10 02:38:54;;;;;;;31.30;11.60;;;;;;;9.55;65.16;99741.06;6159246;23;20168;-87
2022/11/10 02:41:20;;;;;;;27.03;12.40;;;;;;;9.52;65.38;99735.94;6184046;23;20154;-86
2022/11/10 02:43:45;;;;;;;19.60;10.23;;;;;;;9.50;65.50;99736.00;6185293;23;20201;-86
2022/11/10 02:46:12;;;;;;;27.00;11.20;;;;;;;9.52;65.58;99736.81;6159532;23;20639;-86
2022/11/10 02:48:38;;;;;;;24.13;10.63;;;;;;;9.55;65.47;99741.06;6188819;23;20607;-86
2022/11/10 02:51:04;;;;;;;21.40;11.33;;;;;;;9.57;65.57;99747.94;6188380;23;20150;-87
2022/11/10 02:53:29;;;;;;;29.40;11.77;;;;;;;9.57;65.05;99752.31;6188494;23;20194;-86
2022/11/10 02:55:54;;;;;;;21.53;10.70;;;;;;;9.63;64.77;99752.09;6188706;23;20204;-86
2022/11/10 02:58:21;;;;;;;21.80;10.80;;;;;;;9.61;64.58;99761.78;6187274;23;20157;-86
2022/11/10 03:00:48;;;;;;;21.67;9.83;;;;;;;9.55;64.29;99762.84;6188456;23;20220;-86
2022/11/10 03:03:15;;;;;;;23.90;10.63;;;;;;;9.48;63.61;99764.00;6188529;23;20223;-87
2022/11/10 03:05:40;;;;;;;26.60;12.33;;;;;;;9.43;63.68;99763.34;6188728;23;20574;-87
2022/11/10 03:08:07;;;;;;;20.53;10.10;;;;;;;9.40;63.60;99757.34;6187216;23;20241;-87
2022/11/10 03:10:32;;;;;;;22.20;9.43;;;;;;;9.32;63.21;99756.78;6188509;23;20510;-86
2022/11/10 03:13:00;;;;;;;27.13;10.37;;;;;;;9.32;63.47;99757.66;6162066;23;20629;-86
2022/11/10 03:15:28;;;;;;;20.00;10.77;;;;;;;9.37;62.86;99762.69;6162393;23;20483;-86
2022/11/10 03:17:55;;;;;;;26.23;11.30;;;;;;;9.35;63.07;99761.91;6162610;23;20241;-86
2022/11/10 03:20:22;;;;;;;26.33;11.10;;;;;;;9.29;63.22;99757.75;6162361;23;20177;-86
2022/11/10 03:22:47;;;;;;;31.47;10.43;;;;;;;9.28;63.41;99763.88;6189038;23;20149;-86
2022/11/10 03:25:13;;;;;;;24.23;10.90;;;;;;;9.24;63.13;99763.16;6188531;23;20184;-87
2022/11/10 03:27:39;;;;;;;32.90;11.37;;;;;;;9.22;63.92;99764.97;6188339;23;20596;-86
2022/11/10 03:30:06;;;;;;;23.53;10.97;;;;;;;9.18;64.09;99763.38;6188371;23;20159;-86
2022/11/10 03:32:32;;;;;;;25.70;12.83;;;;;;;9.17;63.84;99764.28;6188041;23;20252;-86
2022/11/10 03:34:58;;;;;;;21.57;9.73;;;;;;;9.13;64.17;99762.72;6188653;23;20530;-86
2022/11/10 03:37:24;;;;;;;24.03;10.20;;;;;;;9.09;64.31;99762.88;6162247;23;20174;-86
2022/11/10 03:39:49;;;;;;;35.73;12.07;;;;;;;9.11;64.09;99759.31;6188584;23;20147;-86
2022/11/10 03:42:15;;;;;;;26.00;10.37;;;;;;;9.05;64.52;99767.34;6188896;23;20154;-86
2022/11/10 03:44:41;;;;;;;25.20;11.80;;;;;;;9.00;64.30;99764.06;6188304;23;20148;-86
2022/11/10 03:47:09;;;;;;;19.70;9.07;;;;;;;9.05;63.81;99772.59;6162190;23;20161;-86
2022/11/10 03:49:36;;;;;;;27.97;10.00;;;;;;;9.03;63.64;99768.31;6187042;23;20448;-86
2022/11/10 03:52:01;;;;;;;20.93;9.73;;;;;;;8.98;63.49;99780.72;6162145;23;20565;-86
2022/11/10 03:54:28;;;;;;;32.17;10.80;;;;;;;8.94;63.44;99773.88;6188131;23;20629;-86
2022/11/10 03:56:54;;;;;;;16.63;8.93;;;;;;;8.97;63.81;99779.84;6188185;23;20152;-85
2022/11/10 03:59:21;;;;;;;18.53;8.43;;;;;;;8.94;63.98;99769.50;6186197;23;20609;-86
2022/11/10 04:01:48;;;;;;;18.73;8.77;;;;;;;8.88;63.87;99772.34;6187239;23;20182;-86
2022/11/10 04:09:48;;;;;;;23.20;9.73;;;;;;;8.90;64.67;99775.75;6186725;23;20468;-86
2022/11/10 04:17:50;;;;;;;21.30;9.43;;;;;;;8.91;64.82;99779.22;6186543;23;20145;-86
2022/11/10 04:20:16;;;;;;;18.33;8.30;;;;;;;8.93;64.82;99790.47;6160405;23;20168;-86
2022/11/10 04:25:29;;;;;;;28.27;10.87;;;;;;;8.99;64.98;99779.78;6186858;23;20244;-86
2022/11/10 04:27:55;;;;;;;23.93;10.27;;;;;;;8.97;64.49;99795.53;6186425;23;20153;-86
2022/11/10 04:30:21;;;;;;;26.53;11.40;;;;;;;8.98;65.04;99792.03;6186099;23;20159;-86
2022/11/10 04:32:47;;;;;;;22.17;10.43;;;;;;;8.96;64.88;99788.59;6185878;23;20203;-86
2022/11/10 04:35:13;;;;;;;27.53;12.10;;;;;;;8.99;65.23;99796.34;6185101;23;20173;-86
2022/11/10 04:37:40;;;;;;;27.37;11.17;;;;;;;9.03;65.16;99790.09;6186336;23;20178;-86
2022/11/10 04:40:07;;;;;;;22.70;10.17;;;;;;;9.08;65.18;99798.63;6186284;23;20147;-86
2022/11/10 04:42:33;;;;;;;22.43;10.80;;;;;;;9.13;65.12;99791.47;6186170;23;20147;-86
2022/11/10 04:45:00;;;;;;;32.13;12.13;;;;;;;9.18;65.42;99789.53;6186852;23;20153;-86
2022/11/10 04:47:27;;;;;;;39.23;15.13;;;;;;;9.27;65.33;99788.34;6186169;23;20154;-86
2022/11/10 04:49:53;;;;;;;53.23;15.87;;;;;;;9.28;65.49;99796.13;6186178;23;20153;-86
2022/11/10 04:52:20;;;;;;;34.67;12.80;;;;;;;9.31;66.35;99794.31;6186423;23;20182;-87
2022/11/10 04:54:47;;;;;;;42.07;12.10;;;;;;;9.34;66.04;99788.97;6186036;23;20550;-87
2022/11/10 04:57:13;;;;;;;64.10;16.90;;;;;;;9.39;66.04;99794.88;6160043;23;20150;-87
2022/11/10 04:59:40;;;;;;;45.60;15.93;;;;;;;9.46;66.69;99799.00;6186552;23;20225;-87
2022/11/10 05:02:07;;;;;;;49.73;14.40;;;;;;;9.48;66.99;99805.88;6186019;23;20177;-87
2022/11/10 05:04:34;;;;;;;44.47;14.80;;;;;;;9.49;67.89;99810.19;6186647;23;20153;-86
2022/11/10 05:07:00;;;;;;;31.17;11.77;;;;;;;9.54;67.91;99803.00;6159952;23;20159;-87
2022/11/10 05:09:27;;;;;;;52.33;15.87;;;;;;;9.58;68.11;99799.38;6185924;23;20158;-87
2022/11/10 05:11:53;;;;;;;43.03;16.33;;;;;;;9.62;68.63;99805.34;6185915;23;20178;-87
2022/11/10 05:14:20;;;;;;;45.40;16.30;;;;;;;9.66;68.80;99801.72;6184655;23;20253;-87
2022/11/10 05:16:47;;;;;;;42.07;17.00;;;;;;;9.70;69.42;99803.28;6184676;23;20569;-86
2022/11/10 05:19:12;;;;;;;54.47;16.00;;;;;;;9.72;69.57;99806.72;6184766;23;20176;-87
2022/11/10 05:21:37;;;;;;;50.17;16.73;;;;;;;9.73;70.35;99808.41;6183389;23;20168;-87
2022/11/10 05:24:03;;;;;;;43.73;15.07;;;;;;;9.76;70.74;99803.91;6183377;23;20162;-87
2022/11/10 05:26:28;;;;;;;39.73;16.27;;;;;;;9.73;70.55;99809.25;6183527;23;20175;-87
2022/11/10 05:28:54;;;;;;;51.17;18.33;;;;;;;9.80;70.67;99809.91;6183451;23;20146;-87
2022/11/10 05:31:19;;;;;;;44.77;16.10;;;;;;;9.81;70.31;99816.81;6183177;23;20256;-87
2022/11/10 05:33:46;;;;;;;48.23;18.63;;;;;;;9.80;70.43;99820.38;6159044;23;20194;-87
2022/11/10 05:36:11;;;;;;;44.73;17.33;;;;;;;9.85;70.37;99827.09;6185695;23;20531;-87
2022/11/10 05:38:37;;;;;;;47.20;17.13;;;;;;;9.90;70.39;99826.94;6185664;23;20268;-86
2022/11/10 05:41:02;;;;;;;42.00;16.13;;;;;;;9.92;70.63;99819.88;6185687;23;20216;-87
2022/11/10 05:43:27;;;;;;;53.80;18.17;;;;;;;9.98;70.68;99824.88;6159637;23;20485;-87
2022/11/10 05:45:53;;;;;;;38.57;14.80;;;;;;;10.07;70.33;99829.75;6185620;23;20174;-87
2022/11/10 05:48:18;;;;;;;37.90;13.23;;;;;;;10.07;70.40;99839.38;6159654;23;20612;-87
2022/11/10 05:50:44;;;;;;;34.53;15.43;;;;;;;10.10;70.53;99839.25;6185943;23;20208;-87
2022/11/10 05:53:09;;;;;;;28.93;13.53;;;;;;;10.12;70.68;99842.66;6185852;23;20247;-87
2022/11/10 05:55:35;;;;;;;42.77;13.90;;;;;;;10.16;70.77;99845.16;6160340;23;20220;-87
2022/11/10 05:58:00;;;;;;;30.07;11.50;;;;;;;10.21;70.88;99852.81;6185928;23;20205;-87
2022/11/10 06:00:28;;;;;;;29.23;10.30;;;;;;;10.26;70.96;99848.25;6186158;23;20158;-87
2022/11/10 06:03:04;;;;;;;35.20;13.07;;;;;;;10.33;70.97;99852.31;6159543;23;20208;-87
2022/11/10 06:05:32;;;;;;;32.70;13.27;;;;;;;10.33;71.21;99845.31;6185851;23;20430;-87
2022/11/10 06:07:59;;;;;;;32.07;13.33;;;;;;;10.34;71.36;99854.91;6185465;23;20166;-87
2022/11/10 06:10:25;;;;;;;33.57;13.27;;;;;;;10.31;71.60;99852.38;6160712;23;20170;-86
2022/11/10 06:12:50;;;;;;;34.70;12.57;;;;;;;10.36;71.79;99855.69;6185630;23;20205;-87
2022/11/10 06:15:16;;;;;;;35.07;12.93;;;;;;;10.41;72.05;99853.72;6159653;23;20150;-87
2022/11/10 06:17:42;;;;;;;39.23;14.00;;;;;;;10.47;72.04;99855.25;6186102;23;20150;-87
2022/11/10 06:20:08;;;;;;;33.53;14.13;;;;;;;10.49;71.90;99864.75;6185638;23;20169;-87
2022/11/10 06:22:34;;;;;;;37.63;13.53;;;;;;;10.55;72.10;99861.03;6185052;23;20170;-87
2022/11/10 06:24:59;;;;;;;34.27;13.50;;;;;;;10.57;72.28;99866.19;6185371;23;20157;-87
2022/11/10 06:27:24;;;;;;;58.17;21.13;;;;;;;10.60;72.64;99868.69;6185297;23;20150;-87
2022/11/10 06:29:50;;;;;;;32.80;11.53;;;;;;;10.70;72.77;99868.25;6185649;23;20496;-87
2022/11/10 06:32:15;;;;;;;20.60;10.17;;;;;;;10.80;72.74;99868.72;6158938;23;20194;-87
2022/11/10 06:34:41;;;;;;;28.63;10.37;;;;;;;10.85;73.05;99874.63;6185606;23;20165;-87
2022/11/10 06:37:06;;;;;;;26.33;10.97;;;;;;;10.91;72.91;99869.13;6185290;23;20147;-87
2022/11/10 06:39:32;;;;;;;24.43;9.53;;;;;;;10.99;72.75;99881.00;6185233;23;20601;-87
2022/11/10 06:41:57;;;;;;;26.43;8.60;;;;;;;10.91;73.21;99884.88;6185261;23;20280;-86
2022/11/10 06:44:23;;;;;;;22.33;8.87;;;;;;;11.03;73.44;99876.50;6185218;23;20557;-87
2022/11/10 06:46:48;;;;;;;24.40;10.97;;;;;;;11.14;73.39;99884.72;6185450;23;20147;-87
2022/11/10 06:49:13;;;;;;;27.93;11.40;;;;;;;11.19;73.63;99884.56;6185271;23;20208;-87
2022/11/10 06:51:39;;;;;;;28.30;12.63;;;;;;;11.24;74.10;99888.66;6159070;23;20583;-87
2022/11/10 06:54:04;;;;;;;30.10;10.63;;;;;;;11.24;74.47;99878.16;6159146;23;20176;-87
2022/11/10 06:56:30;;;;;;;23.80;10.30;;;;;;;11.29;74.49;99880.63;6185190;23;20161;-87
2022/11/10 06:58:55;;;;;;;29.90;10.90;;;;;;;11.43;74.45;99883.47;6185761;23;20160;-87
2022/11/10 07:01:25;;;;;;;28.83;10.67;;;;;;;11.56;74.76;99876.75;6185726;23;20200;-87
2022/11/10 07:03:50;;;;;;;29.90;11.17;;;;;;;11.70;74.54;99877.88;6185121;23;20147;-87
2022/11/10 07:06:16;;;;;;;24.80;10.60;;;;;;;11.78;75.04;99877.53;6185155;23;20209;-87
2022/11/10 07:35:35;;;;;;;37.37;12.93;;;;;;;12.77;77.34;99887.63;6186850;23;20284;-87
2022/11/10 07:38:03;;;;;;;38.80;12.83;;;;;;;12.91;76.71;99886.97;6186831;23;20192;-87
2022/11/10 07:40:29;;;;;;;41.40;11.50;;;;;;;13.07;76.63;99884.44;6186812;23;20152;-87
2022/11/10 07:42:54;;;;;;;29.80;10.97;;;;;;;13.07;76.68;99884.44;6186811;23;20217;-87
2022/11/10 07:45:20;;;;;;;25.53;10.47;;;;;;;13.00;76.44;99891.75;6160673;23;20460;-87
2022/11/10 07:47:45;;;;;;;29.93;9.93;;;;;;;13.19;76.52;99889.06;6187163;23;20568;-87
2022/11/10 07:50:10;;;;;;;31.27;12.23;;;;;;;13.35;76.36;99890.00;6186757;23;20150;-87
2022/11/10 07:52:36;;;;;;;26.33;11.90;;;;;;;13.50;76.11;99884.78;6186630;23;20172;-87
2022/11/10 07:55:03;;;;;;;26.63;11.53;;;;;;;13.47;75.87;99891.97;6160667;23;20169;-87
2022/11/10 07:57:28;;;;;;;32.57;12.03;;;;;;;13.62;75.65;99885.06;6185514;23;20154;-87
2022/11/10 07:59:54;;;;;;;25.70;11.53;;;;;;;13.86;75.57;99881.94;6160570;23;20169;-87
2022/11/10 08:02:19;;;;;;;29.10;11.60;;;;;;;14.00;74.53;99881.19;6186904;23;20146;-87
2022/11/10 08:04:45;;;;;;;29.17;10.17;;;;;;;14.08;74.01;99876.38;6160538;23;20154;-87
2022/11/10 08:07:10;;;;;;;30.30;10.53;;;;;;;14.12;73.29;99878.75;6187619;23;20221;-87
2022/11/10 08:09:35;;;;;;;21.10;9.27;;;;;;;14.28;73.03;99878.75;6160552;23;20158;-87
2022/11/10 08:12:01;;;;;;;19.67;8.20;;;;;;;14.44;72.78;99884.88;6186803;23;20190;-87
2022/11/10 08:14:26;;;;;;;28.37;10.60;;;;;;;14.54;71.82;99885.25;6160599;23;20155;-87
2022/11/10 08:16:52;;;;;;;19.93;9.30;;;;;;;14.62;70.63;99891.75;6187153;23;20163;-88
2022/11/10 08:19:17;;;;;;;24.43;9.43;;;;;;;14.59;70.28;99886.69;6186516;23;20486;-87
2022/11/10 08:21:43;;;;;;;23.87;11.10;;;;;;;14.63;69.94;99890.84;6160798;23;20230;-87
2022/11/10 08:24:08;;;;;;;20.93;9.67;;;;;;;14.59;70.54;99888.47;6186497;23;20178;-87
2022/11/10 08:26:34;;;;;;;28.37;9.70;;;;;;;14.68;70.85;99894.06;6160384;23;20164;-87
2022/11/10 08:28:59;;;;;;;28.67;10.20;;;;;;;14.83;70.08;99897.63;6160448;23;20598;-87
2022/11/10 08:31:25;;;;;;;25.60;9.90;;;;;;;14.80;69.47;99902.22;6186284;23;20208;-87
2022/11/10 08:33:50;;;;;;;21.43;9.97;;;;;;;14.83;69.54;99902.91;6186702;23;20229;-87
2022/11/10 08:36:16;;;;;;;22.63;9.07;;;;;;;14.91;69.38;99903.28;6160886;23;20581;-87
2022/11/10 08:38:41;;;;;;;21.13;8.97;;;;;;;14.97;68.82;99895.00;6187312;23;20158;-87
2022/11/10 08:41:07;;;;;;;24.07;8.77;;;;;;;15.04;68.56;99901.63;6185454;23;20166;-87
2022/11/10 08:43:32;;;;;;;24.83;9.57;;;;;;;15.09;68.60;99902.25;6185400;23;20158;-88
2022/11/10 08:45:58;;;;;;;28.57;11.07;;;;;;;15.11;67.89;99897.72;6186010;23;20491;-87
2022/11/10 08:48:23;;;;;;;27.90;10.00;;;;;;;15.04;68.49;99901.63;6186203;23;20455;-87
2022/11/10 08:50:50;;;;;;;26.70;9.47;;;;;;;15.18;68.74;99899.03;6160542;23;20158;-87
2022/11/10 08:53:18;;;;;;;30.23;10.30;;;;;;;15.38;68.49;99897.88;6186460;23;20607;-87
2022/11/10 08:55:44;;;;;;;26.37;10.30;;;;;;;15.58;66.90;99901.97;6160066;23;20172;-87
2022/11/10 08:58:15;;;;;;;20.90;9.77;;;;;;;15.72;65.92;99899.34;6186117;23;20421;-87
2022/11/10 09:00:41;;;;;;;19.77;9.37;;;;;;;15.72;65.49;99894.06;6160093;23;20156;-87
2022/11/10 09:03:11;;;;;;;26.67;11.50;;;;;;;15.76;66.57;99896.41;6187006;23;20158;-87
2022/11/10 09:05:36;;;;;;;21.67;9.27;;;;;;;15.89;65.56;99888.56;6161106;23;20180;-87
2022/11/10 09:08:03;;;;;;;19.60;9.37;;;;;;;16.06;64.83;99901.59;6184732;23;20169;-88
2022/11/10 09:10:29;;;;;;;23.43;10.17;;;;;;;16.15;65.18;99898.34;6185932;23;20207;-87
2022/11/10 09:12:59;;;;;;;21.10;9.77;;;;;;;16.45;64.42;99893.75;6185631;23;20214;-87
2022/11/10 09:15:24;;;;;;;24.53;10.60;;;;;;;16.69;63.21;99896.66;6159903;23;20536;-88
2022/11/10 09:17:50;;;;;;;19.77;9.90;;;;;;;16.83;60.92;99890.41;6185906;23;20214;-88
2022/11/10 09:20:15;;;;;;;23.00;9.83;;;;;;;16.87;62.00;99902.53;6186230;23;20157;-88
2022/11/10 09:22:41;;;;;;;31.93;9.87;;;;;;;17.02;61.61;99901.50;6160799;23;20154;-88
2022/11/10 09:25:06;;;;;;;23.03;10.70;;;;;;;17.05;61.34;99890.69;6185834;23;20160;-88
2022/11/10 09:27:38;;;;;;;23.27;10.90;;;;;;;17.21;60.53;99888.72;6160166;23;20167;-88
2022/11/10 09:30:05;;;;;;;29.27;11.43;;;;;;;17.35;59.03;99885.97;6159847;23;20185;-88
2022/11/10 09:32:31;;;;;;;22.30;11.10;;;;;;;17.55;58.59;99885.50;6159707;23;20177;-88
2022/11/10 09:34:57;;;;;;;24.70;11.03;;;;;;;17.64;58.42;99887.50;6186311;23;20170;-88
2022/11/10 09:37:22;;;;;;;22.00;10.23;;;;;;;17.67;58.55;99881.13;6160195;23;20167;-88
2022/11/10 09:39:48;;;;;;;22.30;10.50;;;;;;;17.71;57.64;99875.50;6186103;23;20149;-88
2022/11/10 09:42:30;;;;;;;17.77;9.53;;;;;;;17.84;57.14;99869.34;6185690;23;20161;-88
2022/11/10 09:45:19;;;;;;;29.20;10.90;;;;;;;18.01;56.33;99867.19;6160707;23;20153;-88
2022/11/10 09:48:03;;;;;;;23.03;9.47;;;;;;;18.05;55.25;99863.38;6173823;23;20158;-88
2022/11/10 09:50:41;;;;;;;19.20;9.03;;;;;;;18.26;55.11;99866.28;6159686;23;20153;-88
2022/11/10 09:53:15;;;;;;;27.03;11.23;;;;;;;18.42;53.52;99853.59;6160475;23;20162;-88
2022/11/10 09:55:43;;;;;;;20.20;10.37;;;;;;;18.47;53.69;99847.94;6159366;23;20150;-89
2022/11/10 09:58:11;;;;;;;23.77;10.80;;;;;;;18.67;52.60;99860.63;6160376;23;20158;-88
2022/11/10 10:00:39;;;;;;;20.50;9.40;;;;;;;18.79;52.34;99849.91;6159420;23;20158;-88
2022/11/10 10:03:05;;;;;;;20.43;8.43;;;;;;;18.93;51.26;99844.41;6159475;23;20234;-88
2022/11/10 10:06:06;;;;;;;22.33;10.37;;;;;;;19.05;50.69;99839.16;6160051;23;20178;-88
2022/11/10 10:09:05;;;;;;;21.57;9.80;;;;;;;19.11;50.76;99838.66;6159884;23;20573;-88
2022/11/10 10:11:48;;;;;;;22.67;9.97;;;;;;;19.32;49.16;99831.69;6125705;23;20201;-88
2022/11/10 10:14:25;;;;;;;23.97;10.17;;;;;;;19.33;49.49;99834.25;6184554;23;20193;-88
2022/11/10 10:17:03;;;;;;;23.73;9.73;;;;;;;19.62;49.72;99834.69;6160480;23;20159;-88
2022/11/10 10:19:42;;;;;;;19.47;9.30;;;;;;;19.83;47.90;99832.97;6159979;23;20239;-88
2022/11/10 10:22:25;;;;;;;19.47;9.60;;;;;;;19.84;48.15;99823.16;6159361;23;20150;-88
2022/11/10 10:24:55;;;;;;;19.70;9.90;;;;;;;20.01;47.59;99817.34;6160029;23;20146;-88
2022/11/10 10:27:26;;;;;;;25.97;9.90;;;;;;;20.18;47.01;99815.00;6185287;23;20231;-88
2022/11/10 10:29:52;;;;;;;21.37;9.33;;;;;;;20.35;46.63;99818.16;6185221;23;20225;-89
2022/11/10 10:32:18;;;;;;;22.30;9.23;;;;;;;20.39;46.28;99812.44;6185895;23;20173;-89
2022/11/10 10:34:45;;;;;;;21.43;11.20;;;;;;;20.61;45.84;99807.03;6185140;23;20197;-88
2022/11/10 10:37:38;;;;;;;16.93;9.47;;;;;;;20.75;45.34;99809.38;6159661;23;20238;-89
2022/11/10 10:40:04;;;;;;;22.37;9.53;;;;;;;20.66;45.60;99807.50;6159287;23;20147;-89
2022/11/10 10:42:33;;;;;;;14.77;7.73;;;;;;;20.73;46.03;99808.66;6159519;23;20146;-88
2022/11/10 10:45:20;;;;;;;19.50;9.70;;;;;;;21.02;44.65;99806.22;6185490;23;20151;-89
2022/11/10 10:47:48;;;;;;;15.73;8.93;;;;;;;21.15;44.32;99809.56;6160137;23;20515;-89
2022/11/10 10:50:27;;;;;;;18.30;8.37;;;;;;;21.27;43.78;99795.19;6185066;23;20641;-89
2022/11/10 10:53:07;;;;;;;16.27;8.47;;;;;;;21.37;43.09;99798.75;6185412;23;20220;-89
2022/11/10 10:55:34;;;;;;;18.40;8.70;;;;;;;21.50;43.22;99795.84;6159153;23;20170;-88
2022/11/10 10:58:17;;;;;;;16.77;8.73;;;;;;;21.61;42.90;99790.44;6159211;23;20211;-88
2022/11/10 11:01:09;;;;;;;14.93;8.03;;;;;;;21.80;42.46;99789.66;6185135;23;20134;-88
2022/11/10 11:03:45;;;;;;;18.53;9.47;;;;;;;21.90;41.66;99795.91;6139893;23;20158;-89
2022/11/10 11:06:13;;;;;;;14.90;8.07;;;;;;;21.88;41.57;99795.22;6186136;23;20205;-89
2022/11/10 11:08:52;;;;;;;16.37;8.10;;;;;;;22.07;42.16;99787.22;6186721;23;20212;-89
2022/11/10 11:11:22;;;;;;;19.03;9.10;;;;;;;22.11;41.67;99786.00;6185855;23;20549;-89
2022/11/10 11:13:47;;;;;;;18.00;8.90;;;;;;;21.97;41.21;99786.38;6161070;23;20162;-89
2022/11/10 11:16:13;;;;;;;15.60;8.30;;;;;;;22.06;41.02;99782.88;6187072;23;20160;-89
2022/11/10 11:18:39;;;;;;;16.97;9.27;;;;;;;22.07;40.72;99783.72;6187302;23;20648;-89
2022/11/10 11:21:33;;;;;;;13.90;7.90;;;;;;;22.01;41.35;99782.47;6186948;23;20174;-89
2022/11/10 11:24:09;;;;;;;20.83;9.13;;;;;;;22.17;41.18;99780.06;6187296;23;20138;-89
2022/11/10 11:26:47;;;;;;;14.77;8.53;;;;;;;21.70;41.82;99775.41;6160890;23;20597;-88
2022/11/10 11:29:57;;;;;;;16.97;8.00;;;;;;;21.84;41.93;99783.91;6161346;23;20158;-88
2022/11/10 11:32:36;;;;;;;15.67;8.20;;;;;;;21.82;41.81;99775.22;6015548;23;20327;-88
2022/11/10 11:35:11;;;;;;;19.50;7.77;;;;;;;22.11;41.68;99769.97;6015542;23;20177;-89
2022/11/10 11:37:55;;;;;;;18.37;8.00;;;;;;;22.26;40.70;99770.41;6130287;23;20173;-89
2022/11/10 11:40:36;;;;;;;13.47;7.67;;;;;;;22.13;40.70;99777.81;6187153;23;20147;-89
2022/11/10 11:43:52;;;;;;;19.13;8.73;;;;;;;21.98;41.88;99772.03;6186793;23;20154;-89
2022/11/10 11:46:32;;;;;;;15.70;7.87;;;;;;;22.13;41.35;99767.13;6125982;23;20159;-88
2022/11/10 11:49:16;;;;;;;18.27;9.03;;;;;;;22.45;40.59;99765.91;6186292;23;20165;-88
2022/11/10 11:51:50;;;;;;;15.13;8.57;;;;;;;22.52;40.45;99771.53;6186957;23;20159;-88
2022/11/10 11:54:40;;;;;;;21.27;8.40;;;;;;;22.50;40.97;99768.16;6187304;23;20216;-88
2022/11/10 11:57:23;;;;;;;15.83;8.40;;;;;;;22.88;40.26;99772.66;6160600;23;20646;-89
2022/11/10 12:00:11;;;;;;;19.17;8.43;;;;;;;22.84;39.72;99768.59;6186978;23;20217;-89
2022/11/10 12:03:23;;;;;;;15.30;8.17;;;;;;;22.82;40.18;99767.91;6186959;23;20131;-89
2022/11/10 12:06:07;;;;;;;15.70;8.37;;;;;;;22.86;39.88;99763.94;6128146;23;20197;-88
2022/11/10 12:08:45;;;;;;;17.63;9.50;;;;;;;23.06;39.84;99769.09;6186882;23;20547;-88
2022/11/10 12:11:32;;;;;;;14.50;8.27;;;;;;;23.07;39.63;99775.31;6186604;23;20463;-88
2022/11/10 12:14:12;;;;;;;21.10;8.23;;;;;;;23.29;39.38;99769.63;6187172;23;20146;-89